createdAt,value
2022-09-06T00:03:14.731Z,101566.18
2022-09-06T00:08:17.491Z,101565.09
2022-09-06T00:13:21.598Z,101561.71
2022-09-06T00:18:24.559Z,101561.14
2022-09-06T00:23:27.497Z,101561.30
2022-09-06T00:28:30.290Z,101560.58
2022-09-06T00:33:33.072Z,101558.38
2022-09-06T00:38:36.370Z,101562.52
2022-09-06T00:43:39.516Z,101563.19
2022-09-06T00:48:44.639Z,101562.19
2022-09-06T00:53:47.626Z,101560.27
2022-09-06T00:58:50.618Z,101559.41
2022-09-06T01:03:53.893Z,101555.00
2022-09-06T01:09:10.749Z,101550.70
2022-09-06T01:14:31.065Z,101553.56
2022-09-06T01:19:42.639Z,101558.50
2022-09-06T01:25:13.414Z,101555.32
2022-09-06T01:30:19.169Z,101556.20
2022-09-06T01:35:38.423Z,101555.00
2022-09-06T01:40:41.100Z,101554.36
2022-09-06T01:46:04.045Z,101555.41
2022-09-06T01:51:35.446Z,101551.50
2022-09-06T01:56:43.771Z,101553.02
2022-09-06T02:02:10.366Z,101548.52
2022-09-06T02:07:23.875Z,101544.08
2022-09-06T02:12:29.943Z,101543.83
2022-09-06T02:17:38.327Z,101546.66
2022-09-06T02:22:45.733Z,101553.66
2022-09-06T02:27:48.480Z,101549.81
2022-09-06T02:32:58.253Z,101549.92
2022-09-06T02:38:02.392Z,101548.16
2022-09-06T02:43:05.605Z,101552.12
2022-09-06T02:48:08.290Z,101549.80
2022-09-06T02:53:15.425Z,101549.62
2022-09-06T02:58:18.157Z,101547.70
2022-09-06T03:03:21.924Z,101547.00
2022-09-06T03:08:26.424Z,101548.58
2022-09-06T03:13:29.789Z,101543.13
2022-09-06T03:18:33.073Z,101539.15
2022-09-06T03:23:35.854Z,101537.50
2022-09-06T03:28:38.734Z,101535.39
2022-09-06T03:33:41.603Z,101536.55
2022-09-06T03:38:44.369Z,101538.95
2022-09-06T03:43:47.036Z,101530.02
2022-09-06T03:48:50.090Z,101532.73
2022-09-06T03:53:52.947Z,101535.48
2022-09-06T03:58:55.660Z,101532.70
2022-09-06T04:03:58.442Z,101532.36
2022-09-06T04:09:01.086Z,101535.70
2022-09-06T04:14:03.829Z,101533.45
2022-09-06T04:19:06.544Z,101541.82
2022-09-06T04:24:09.339Z,101542.86
2022-09-06T04:29:12.006Z,101539.81
2022-09-06T04:34:16.537Z,101536.41
2022-09-06T04:39:19.299Z,101535.96
2022-09-06T04:44:21.958Z,101536.17
2022-09-06T04:49:24.626Z,101536.85
2022-09-06T04:54:27.357Z,101540.20
2022-09-06T04:59:30.506Z,101542.02
2022-09-06T05:04:33.284Z,101539.16
2022-09-06T05:09:36.947Z,101542.45
2022-09-06T05:14:39.863Z,101538.07
2022-09-06T05:19:42.529Z,101547.11
2022-09-06T05:24:46.296Z,101540.02
2022-09-06T05:29:49.190Z,101540.35
2022-09-06T05:34:51.842Z,101534.52
2022-09-06T05:39:54.726Z,101539.20
2022-09-06T05:44:57.463Z,101538.17
2022-09-06T05:50:00.183Z,101537.83
2022-09-06T05:55:04.484Z,101537.64
2022-09-06T06:00:08.099Z,101540.52
2022-09-06T06:05:10.931Z,101540.95
2022-09-06T06:10:13.627Z,101544.29
2022-09-06T06:15:16.335Z,101540.92
2022-09-06T06:20:20.907Z,101539.40
2022-09-06T06:25:26.363Z,101530.42
2022-09-06T06:30:29.109Z,101534.88
2022-09-06T06:35:31.790Z,101535.70
2022-09-06T06:40:34.593Z,101535.18
2022-09-06T06:45:37.324Z,101539.55
2022-09-06T06:50:40.101Z,101535.38
2022-09-06T06:55:48.489Z,101531.36
2022-09-06T07:00:51.497Z,101533.50
2022-09-06T07:11:15.030Z,101535.38
2022-09-06T07:16:24.845Z,101530.33
2022-09-06T07:21:43.433Z,101526.89
2022-09-06T07:37:17.925Z,101525.74
2022-09-06T07:42:20.839Z,101529.12
2022-09-06T07:58:09.206Z,101521.24
2022-09-06T08:03:12.178Z,101518.30
2022-09-06T08:13:39.572Z,101507.00
2022-09-06T08:18:43.551Z,101507.44
2022-09-06T08:23:58.542Z,101497.75
2022-09-06T08:29:03.930Z,101491.59
2022-09-06T08:34:06.719Z,101490.15
2022-09-06T08:39:10.503Z,101490.44
2022-09-06T08:49:52.933Z,101479.45
2022-09-06T08:55:12.592Z,101475.52
2022-09-06T09:00:15.610Z,101473.92
2022-09-06T09:05:27.522Z,101469.54
2022-09-06T09:10:40.472Z,101462.42
2022-09-06T09:15:43.134Z,101459.77
2022-09-06T09:20:45.858Z,101456.77
2022-09-06T09:25:52.847Z,101448.67
2022-09-06T09:30:57.106Z,101439.00
2022-09-06T09:36:02.756Z,101437.52
2022-09-06T09:41:08.375Z,101432.73
2022-09-06T09:46:23.141Z,101431.70
2022-09-06T09:51:27.784Z,101421.00
2022-09-06T09:56:34.123Z,101418.70
2022-09-06T10:01:38.751Z,101411.61
2022-09-06T10:12:05.990Z,101400.88
2022-09-06T10:17:08.934Z,101397.08
2022-09-06T10:22:29.779Z,101392.70
2022-09-06T10:27:33.370Z,101388.52
2022-09-06T10:32:46.319Z,101386.30
2022-09-06T10:38:13.434Z,101384.27
2022-09-06T10:43:20.525Z,101382.45
2022-09-06T10:48:29.695Z,101377.80
2022-09-06T10:53:56.848Z,101381.14
2022-09-06T10:59:44.118Z,101379.29
2022-09-06T11:10:34.536Z,101375.08
2022-09-06T11:15:48.244Z,101372.22
2022-09-06T11:21:19.571Z,101363.48
2022-09-06T11:26:34.677Z,101353.27
2022-09-06T11:37:27.684Z,101339.28
2022-09-06T11:43:14.330Z,101339.59
2022-09-06T11:48:54.685Z,101329.18
2022-09-06T11:53:57.950Z,101316.99
2022-09-06T11:59:13.146Z,101310.73
2022-09-06T12:04:16.017Z,101303.42
2022-09-06T12:09:42.789Z,101300.04
2022-09-06T12:14:49.277Z,101290.67
2022-09-06T12:19:55.441Z,101286.20
2022-09-06T12:25:03.908Z,101284.23
2022-09-06T12:30:11.485Z,101275.36
2022-09-06T12:40:48.768Z,101275.55
2022-09-06T12:45:52.685Z,101274.14
2022-09-06T12:51:08.434Z,101270.17
2022-09-06T12:56:12.724Z,101258.70
2022-09-06T13:01:18.448Z,101255.30
2022-09-06T13:06:26.977Z,101243.52
2022-09-06T13:11:41.172Z,101233.15
2022-09-06T13:16:47.558Z,101228.82
2022-09-06T13:21:52.029Z,101230.99
2022-09-06T13:26:55.049Z,101227.03
2022-09-06T13:32:01.535Z,101216.66
2022-09-06T13:37:07.976Z,101215.15
2022-09-06T13:42:24.713Z,101216.98
2022-09-06T13:47:29.550Z,101210.27
2022-09-06T13:52:32.275Z,101213.09
2022-09-06T13:57:35.067Z,101215.97
2022-09-06T14:02:42.066Z,101213.77
2022-09-06T14:07:45.526Z,101214.02
2022-09-06T14:12:48.532Z,101214.02
2022-09-06T14:17:51.600Z,101204.45
2022-09-06T14:22:58.455Z,101196.45
2022-09-06T14:28:04.971Z,101192.77
2022-09-06T14:33:07.891Z,101184.56
2022-09-06T14:38:10.641Z,101183.69
2022-09-06T14:43:13.402Z,101172.37
2022-09-06T14:48:17.977Z,101164.37
2022-09-06T14:53:39.378Z,101154.17
2022-09-06T14:58:43.876Z,101144.42
2022-09-06T15:03:51.502Z,101134.59
2022-09-06T15:08:59.156Z,101125.64
2022-09-06T15:14:08.978Z,101123.65
2022-09-06T15:19:12.128Z,101118.52
2022-09-06T15:24:15.257Z,101117.55
2022-09-06T15:29:18.490Z,101123.28
2022-09-06T15:34:23.123Z,101118.29
2022-09-06T15:39:26.018Z,101109.86
2022-09-06T15:44:28.938Z,101105.64
2022-09-06T15:49:32.488Z,101095.09
2022-09-06T15:54:53.675Z,101091.05
2022-09-06T15:59:59.146Z,101082.98
2022-09-06T16:05:02.063Z,101081.16
2022-09-06T16:10:05.576Z,101084.13
2022-09-06T16:15:09.118Z,101079.46
2022-09-06T16:20:11.848Z,101078.48
2022-09-06T16:25:14.617Z,101075.13
2022-09-06T16:30:17.530Z,101073.43
2022-09-06T16:35:20.196Z,101070.58
2022-09-06T16:40:22.979Z,101074.83
2022-09-06T16:45:25.648Z,101076.59
2022-09-06T16:50:28.571Z,101076.05
2022-09-06T16:55:31.406Z,101077.07
2022-09-06T17:00:34.160Z,101075.77
2022-09-06T17:05:36.850Z,101083.26
2022-09-06T17:10:39.740Z,101086.45
2022-09-06T17:16:01.056Z,101089.57
2022-09-06T17:21:07.607Z,101086.05
2022-09-06T17:26:10.718Z,101090.79
2022-09-06T17:31:13.890Z,101096.22
2022-09-06T17:36:21.277Z,101103.41
2022-09-06T17:41:27.869Z,101106.05
2022-09-06T17:46:31.202Z,101110.18
2022-09-06T17:51:34.293Z,101106.44
2022-09-06T17:56:37.621Z,101109.64
2022-09-06T18:01:42.289Z,101111.93
2022-09-06T18:06:46.903Z,101120.81
2022-09-06T18:11:49.664Z,101125.80
2022-09-06T18:16:52.690Z,101129.55
2022-09-06T18:21:57.432Z,101133.05
2022-09-06T18:27:02.884Z,101128.26
2022-09-06T18:32:07.657Z,101130.13
2022-09-06T18:37:10.752Z,101133.77
2022-09-06T18:42:13.661Z,101140.16
2022-09-06T18:47:16.440Z,101144.66
2022-09-06T18:52:20.526Z,101141.73
2022-09-06T18:57:23.216Z,101146.48
2022-09-06T19:02:28.019Z,101151.85
2022-09-06T19:07:30.825Z,101152.94
2022-09-06T19:12:33.510Z,101152.23
2022-09-06T19:17:36.321Z,101151.30
2022-09-06T19:22:38.986Z,101151.66
2022-09-06T19:27:43.668Z,101151.57
2022-09-06T19:32:49.528Z,101153.41
2022-09-06T19:37:52.394Z,101154.99
2022-09-06T19:42:55.149Z,101152.85
2022-09-06T19:47:57.975Z,101149.25
2022-09-06T19:53:05.304Z,101150.42
2022-09-06T19:58:09.979Z,101146.77
2022-09-06T20:03:13.276Z,101150.23
2022-09-06T20:08:16.075Z,101147.78
2022-09-06T20:13:18.886Z,101148.10
2022-09-06T20:18:22.366Z,101143.84
2022-09-06T20:23:27.004Z,101141.60
2022-09-06T20:28:30.287Z,101144.55
2022-09-06T20:33:34.469Z,101143.72
2022-09-06T20:38:42.671Z,101142.31
2022-09-06T20:43:46.648Z,101144.87
2022-09-06T20:48:49.828Z,101142.27
2022-09-06T20:53:57.828Z,101140.86
2022-09-06T20:59:02.683Z,101136.74
2022-09-06T21:04:07.590Z,101132.38
2022-09-06T21:09:13.535Z,101130.73
2022-09-06T21:14:16.272Z,101128.75
2022-09-06T21:19:18.988Z,101129.34
2022-09-06T21:24:21.731Z,101128.08
2022-09-06T21:29:24.703Z,101127.78
2022-09-06T21:34:27.416Z,101124.00
2022-09-06T21:39:30.241Z,101119.52
2022-09-06T21:44:33.014Z,101126.20
2022-09-06T21:49:35.715Z,101117.64
2022-09-06T21:54:38.669Z,101120.30
2022-09-06T21:59:41.732Z,101116.51
2022-09-06T22:04:44.423Z,101118.69
2022-09-06T22:09:48.162Z,101117.80
2022-09-06T22:14:50.851Z,101118.96
2022-09-06T22:19:53.633Z,101117.28
2022-09-06T22:24:56.551Z,101110.02
2022-09-06T22:29:59.246Z,101114.83
2022-09-06T22:35:06.055Z,101110.80
2022-09-06T22:40:09.921Z,101116.64
2022-09-06T22:45:12.818Z,101116.45
2022-09-06T22:50:15.606Z,101117.56
2022-09-06T22:55:18.389Z,101118.89
2022-09-06T23:00:21.116Z,101117.71
2022-09-06T23:05:23.999Z,101114.75
2022-09-06T23:10:26.690Z,101104.86
2022-09-06T23:15:29.380Z,101101.45
2022-09-06T23:20:32.105Z,101100.26
2022-09-06T23:25:39.010Z,101091.91
2022-09-06T23:30:41.860Z,101089.69
2022-09-06T23:35:44.632Z,101083.30
2022-09-06T23:40:47.351Z,101076.64
2022-09-06T23:45:50.098Z,101077.29
2022-09-06T23:50:52.918Z,101081.05
2022-09-06T23:55:55.974Z,101080.83
